createdAt,value
2022-09-18T00:01:27.031Z,95625.53
2022-09-18T00:03:55.742Z,95624.97
2022-09-18T00:06:25.530Z,95629.19
2022-09-18T00:08:58.368Z,95631.25
2022-09-18T00:11:28.149Z,95639.34
2022-09-18T00:13:55.562Z,95644.56
2022-09-18T00:16:23.793Z,95639.59
2022-09-18T00:18:50.723Z,95632.03
2022-09-18T00:21:21.035Z,95635.16
2022-09-18T00:23:48.373Z,95638.06
2022-09-18T00:26:18.370Z,95638.81
2022-09-18T00:28:46.479Z,95644.56
2022-09-18T00:31:17.821Z,95640.88
2022-09-18T00:33:45.609Z,95641.97
2022-09-18T00:36:15.485Z,95643.53
2022-09-18T00:38:42.800Z,95645.13
2022-09-18T00:41:17.464Z,95629.41
2022-09-18T00:43:45.040Z,95629.41
2022-09-18T00:46:26.568Z,95624.41
2022-09-18T00:49:13.741Z,95626.69
2022-09-18T00:51:41.399Z,95636.31
2022-09-18T00:54:18.068Z,95639.38
2022-09-18T00:56:47.300Z,95630.72
2022-09-18T00:59:19.765Z,95630.63
2022-09-18T01:01:46.743Z,95641.81
2022-09-18T01:04:14.230Z,95628.75
2022-09-18T01:06:41.120Z,95633.94
2022-09-18T01:09:42.679Z,95637.47
2022-09-18T01:12:43.910Z,95639.88
2022-09-18T01:15:22.967Z,95646.41
2022-09-18T01:18:20.710Z,95645.03
2022-09-18T01:21:06.560Z,95641.63
2022-09-18T01:24:09.360Z,95639.47
2022-09-18T01:26:38.960Z,95652.53
2022-09-18T01:29:30.540Z,95647.88
2022-09-18T01:32:01.248Z,95649.69
2022-09-18T01:34:50.060Z,95658.00
2022-09-18T01:37:29.280Z,95656.94
2022-09-18T01:40:23.820Z,95653.22
2022-09-18T01:42:54.139Z,95657.34
2022-09-18T01:45:28.282Z,95676.63
2022-09-18T01:48:03.575Z,95666.19
2022-09-18T01:50:39.933Z,95666.19
2022-09-18T01:53:13.560Z,95677.28
2022-09-18T01:55:42.259Z,95692.94
2022-09-18T01:58:19.228Z,95697.25
2022-09-18T02:00:55.641Z,95696.34
2022-09-18T02:03:27.781Z,95711.16
2022-09-18T02:06:06.530Z,95710.59
2022-09-18T02:08:50.498Z,95718.94
2022-09-18T02:11:22.000Z,95711.03
2022-09-18T02:13:52.262Z,95714.97
2022-09-18T02:16:41.591Z,95705.81
2022-09-18T02:19:17.203Z,95717.50
2022-09-18T02:21:47.431Z,95717.19
2022-09-18T02:24:18.128Z,95722.97
2022-09-18T02:26:47.470Z,95715.38
2022-09-18T02:29:17.330Z,95713.94
2022-09-18T02:31:45.439Z,95712.13
2022-09-18T02:34:13.801Z,95708.66
2022-09-18T02:37:04.720Z,95715.63
2022-09-18T02:39:37.561Z,95718.94
2022-09-18T02:43:02.842Z,95731.91
2022-09-18T02:45:40.166Z,95718.84
2022-09-18T02:48:50.427Z,95717.50
2022-09-18T02:51:26.241Z,95714.34
2022-09-18T02:54:07.741Z,95730.25
2022-09-18T02:56:34.890Z,95726.75
2022-09-18T02:59:08.490Z,95722.81
2022-09-18T03:01:38.811Z,95722.25
2022-09-18T03:04:11.859Z,95723.81
2022-09-18T03:07:04.899Z,95721.56
2022-09-18T03:09:38.320Z,95713.38
2022-09-18T03:12:05.500Z,95727.13
2022-09-18T03:14:37.627Z,95731.50
2022-09-18T03:17:04.838Z,95728.25
2022-09-18T03:19:32.662Z,95739.31
2022-09-18T03:22:02.140Z,95732.53
2022-09-18T03:24:31.680Z,95732.81
2022-09-18T03:26:58.800Z,95733.63
2022-09-18T03:29:27.880Z,95727.84
2022-09-18T03:31:56.423Z,95735.66
2022-09-18T03:34:23.619Z,95741.13
2022-09-18T03:36:50.720Z,95735.66
2022-09-18T03:39:18.672Z,95743.41
2022-09-18T03:41:47.100Z,95739.47
2022-09-18T03:44:14.000Z,95744.91
2022-09-18T03:46:43.183Z,95739.69
2022-09-18T03:49:10.208Z,95745.16
2022-09-18T03:51:41.900Z,95745.94
2022-09-18T03:54:09.000Z,95742.75
2022-09-18T03:57:08.551Z,95754.22
2022-09-18T03:59:45.043Z,95752.88
2022-09-18T04:02:21.722Z,95746.22
2022-09-18T04:05:07.750Z,95762.47
2022-09-18T04:07:53.170Z,95760.09
2022-09-18T04:10:47.890Z,95764.84
2022-09-18T04:13:15.820Z,95764.28
2022-09-18T04:15:45.379Z,95768.69
2022-09-18T04:18:12.649Z,95762.47
2022-09-18T04:20:39.837Z,95765.44
2022-09-18T04:23:07.171Z,95771.22
2022-09-18T04:25:34.490Z,95771.22
2022-09-18T04:28:02.610Z,95772.09
2022-09-18T04:30:30.358Z,95768.91
2022-09-18T04:32:57.891Z,95771.31
2022-09-18T04:35:26.091Z,95773.13
2022-09-18T04:37:53.249Z,95776.84
2022-09-18T04:40:21.326Z,95781.59
2022-09-18T04:42:48.810Z,95783.53
2022-09-18T04:45:16.173Z,95781.94
2022-09-18T04:47:46.141Z,95781.78
2022-09-18T04:50:14.013Z,95790.19
2022-09-18T04:53:01.132Z,95784.25
2022-09-18T04:55:28.611Z,95774.41
2022-09-18T04:57:57.052Z,95786.72
2022-09-18T05:00:24.554Z,95780.81
2022-09-18T05:02:52.292Z,95802.31
2022-09-18T05:05:22.970Z,95795.94
2022-09-18T05:07:50.811Z,95792.72
2022-09-18T05:10:20.969Z,95795.75
2022-09-18T05:12:48.451Z,95797.47
2022-09-18T05:15:15.730Z,95798.22
2022-09-18T05:17:46.050Z,95795.28
2022-09-18T05:20:14.449Z,95799.75
2022-09-18T05:22:47.290Z,95796.56
2022-09-18T05:25:23.730Z,95798.59
2022-09-18T05:27:58.770Z,95795.66
2022-09-18T05:30:30.731Z,95800.22
2022-09-18T05:33:02.057Z,95800.38
2022-09-18T05:35:33.092Z,95793.16
2022-09-18T05:38:01.731Z,95799.28
2022-09-18T05:40:34.206Z,95798.19
2022-09-18T05:43:03.411Z,95793.53
2022-09-18T05:45:32.459Z,95790.13
2022-09-18T05:48:03.330Z,95793.38
2022-09-18T05:50:31.944Z,95795.44
2022-09-18T05:53:01.584Z,95788.97
2022-09-18T05:55:35.154Z,95776.31
2022-09-18T05:58:05.806Z,95789.75
2022-09-18T06:00:35.435Z,95794.75
2022-09-18T06:03:12.168Z,95799.50
2022-09-18T06:05:40.185Z,95791.91
2022-09-18T06:08:12.411Z,95798.44
2022-09-18T06:10:41.307Z,95796.13
2022-09-18T06:13:12.484Z,95795.31
2022-09-18T06:15:48.911Z,95799.53
2022-09-18T06:18:24.844Z,95793.50
2022-09-18T06:20:57.374Z,95793.25
2022-09-18T06:23:28.758Z,95795.88
2022-09-18T06:26:05.893Z,95790.34
2022-09-18T06:28:35.305Z,95792.44
2022-09-18T06:31:06.189Z,95790.88
2022-09-18T06:33:52.048Z,95786.41
2022-09-18T06:36:19.224Z,95797.13
2022-09-18T06:39:05.076Z,95799.00
2022-09-18T06:41:32.778Z,95791.09
2022-09-18T06:43:59.806Z,95800.03
2022-09-18T06:46:39.924Z,95802.16
2022-09-18T06:49:24.202Z,95807.63
2022-09-18T06:51:51.354Z,95813.22
2022-09-18T06:54:18.494Z,95812.66
2022-09-18T06:56:46.646Z,95811.09
2022-09-18T06:59:14.664Z,95812.63
2022-09-18T07:01:41.749Z,95813.94
2022-09-18T07:04:16.765Z,95810.81
2022-09-18T07:06:46.105Z,95815.75
2022-09-18T07:09:14.402Z,95815.25
2022-09-18T07:12:01.904Z,95817.34
2022-09-18T07:14:49.105Z,95825.16
2022-09-18T07:17:18.659Z,95823.09
2022-09-18T07:19:50.986Z,95825.69
2022-09-18T07:22:21.493Z,95827.78
2022-09-18T07:24:48.465Z,95831.28
2022-09-18T07:27:15.875Z,95831.47
2022-09-18T07:29:43.905Z,95830.91
2022-09-18T07:32:14.483Z,95835.66
2022-09-18T07:34:44.644Z,95835.09
2022-09-18T07:37:14.984Z,95837.53
2022-09-18T07:39:47.435Z,95854.09
2022-09-18T07:42:33.075Z,95835.69
2022-09-18T07:45:02.065Z,95851.97
2022-09-18T07:47:30.245Z,95838.13
2022-09-18T07:50:00.633Z,95845.28
2022-09-18T07:52:27.784Z,95848.16
2022-09-18T07:54:57.203Z,95852.34
2022-09-18T07:57:29.178Z,95845.84
2022-09-18T08:00:32.207Z,95855.28
2022-09-18T08:03:05.910Z,95848.72
2022-09-18T08:05:53.205Z,95850.28
2022-09-18T08:08:20.283Z,95844.50
2022-09-18T08:11:01.153Z,95853.72
2022-09-18T08:13:44.864Z,95850.28
2022-09-18T08:16:44.158Z,95865.00
2022-09-18T08:19:37.745Z,95853.72
2022-09-18T08:22:23.902Z,95862.34
2022-09-18T08:24:55.205Z,95851.59
2022-09-18T08:27:22.196Z,95848.69
2022-09-18T08:29:49.134Z,95850.75
2022-09-18T08:32:16.404Z,95848.72
2022-09-18T08:34:43.564Z,95855.56
2022-09-18T08:37:13.615Z,95843.75
2022-09-18T08:39:59.562Z,95839.53
2022-09-18T08:42:48.519Z,95836.16
2022-09-18T08:45:18.715Z,95834.56
2022-09-18T08:47:53.524Z,95831.13
2022-09-18T08:50:24.804Z,95826.91
2022-09-18T08:53:18.885Z,95830.03
2022-09-18T08:56:24.904Z,95838.19
2022-09-18T08:59:44.216Z,95833.66
2022-09-18T09:02:33.117Z,95837.28
2022-09-18T09:05:06.664Z,95845.97
2022-09-18T09:07:52.504Z,95833.25
2022-09-18T09:10:31.514Z,95841.75
2022-09-18T09:13:33.087Z,95836.56
2022-09-18T09:16:18.879Z,95833.06
2022-09-18T09:19:00.455Z,95840.28
2022-09-18T09:22:11.085Z,95841.97
2022-09-18T09:25:17.675Z,95847.03
2022-09-18T09:27:59.164Z,95844.81
2022-09-18T09:31:03.594Z,95851.47
2022-09-18T09:34:02.274Z,95836.81
2022-09-18T09:37:12.466Z,95859.59
2022-09-18T09:39:49.725Z,95867.66
2022-09-18T09:42:26.046Z,95850.63
2022-09-18T09:45:00.265Z,95860.09
2022-09-18T09:47:27.546Z,95861.81
2022-09-18T09:50:27.074Z,95857.66
2022-09-18T09:52:59.386Z,95859.66
2022-09-18T09:55:33.172Z,95848.84
2022-09-18T09:58:10.184Z,95861.81
2022-09-18T10:00:52.807Z,95854.28
2022-09-18T10:03:31.605Z,95865.16
2022-09-18T10:06:19.404Z,95861.81
2022-09-18T10:09:19.304Z,95858.91
2022-09-18T10:11:57.659Z,95868.91
2022-09-18T10:14:29.345Z,95871.09
2022-09-18T10:16:58.215Z,95858.91
2022-09-18T10:19:35.182Z,95860.31
2022-09-18T10:22:06.091Z,95852.06
2022-09-18T10:24:51.924Z,95854.00
2022-09-18T10:27:20.185Z,95848.84
2022-09-18T10:29:47.175Z,95848.69
2022-09-18T10:32:37.128Z,95848.53
2022-09-18T10:35:30.619Z,95847.47
2022-09-18T10:37:59.487Z,95843.88
2022-09-18T10:40:40.461Z,95846.41
2022-09-18T10:43:19.406Z,95838.19
2022-09-18T10:45:54.705Z,95847.34
2022-09-18T10:48:28.324Z,95834.78
2022-09-18T10:51:04.835Z,95835.81
2022-09-18T10:53:42.893Z,95843.41
2022-09-18T10:56:32.984Z,95831.72
2022-09-18T10:59:32.123Z,95826.09
2022-09-18T11:13:30.335Z,95838.94
2022-09-18T11:16:00.155Z,95837.31
2022-09-18T11:18:31.001Z,95845.31
2022-09-18T11:21:04.531Z,95849.53
2022-09-18T11:23:34.344Z,95843.72
2022-09-18T11:26:19.870Z,95848.38
2022-09-18T11:29:18.114Z,95843.09
2022-09-18T11:31:54.547Z,95846.94
2022-09-18T11:34:28.347Z,95846.41
2022-09-18T11:37:00.234Z,95851.22
2022-09-18T11:39:35.166Z,95842.25
2022-09-18T11:42:13.568Z,95837.84
2022-09-18T11:44:41.644Z,95845.91
2022-09-18T11:47:29.344Z,95846.50
2022-09-18T11:50:22.704Z,95837.91
2022-09-18T11:52:54.628Z,95844.53
2022-09-18T11:55:36.955Z,95853.97
2022-09-18T11:58:30.294Z,95848.06
2022-09-18T12:01:30.284Z,95845.91
2022-09-18T12:04:04.184Z,95832.03
2022-09-18T12:06:48.499Z,95827.63
2022-09-18T12:09:22.337Z,95833.72
2022-09-18T12:12:11.685Z,95833.13
2022-09-18T12:14:52.992Z,95848.13
2022-09-18T12:17:35.220Z,95838.06
2022-09-18T12:20:09.487Z,95836.81
2022-09-18T12:22:47.076Z,95846.88
2022-09-18T12:25:17.064Z,95839.66
2022-09-18T12:28:13.341Z,95848.75
2022-09-18T12:30:47.587Z,95834.03
2022-09-18T12:33:33.445Z,95828.88
2022-09-18T12:36:04.454Z,95842.16
2022-09-18T12:38:47.359Z,95848.44
2022-09-18T12:41:14.283Z,95844.72
2022-09-18T12:44:09.252Z,95835.78
2022-09-18T12:46:42.548Z,95831.25
2022-09-18T12:49:12.176Z,95833.28
2022-09-18T12:52:00.707Z,95831.22
2022-09-18T12:54:36.793Z,95833.25
2022-09-18T12:57:19.331Z,95840.00
2022-09-18T13:00:12.608Z,95834.81
2022-09-18T13:02:57.221Z,95841.75
2022-09-18T13:05:27.034Z,95838.28
2022-09-18T13:08:01.221Z,95847.38
2022-09-18T13:10:38.491Z,95835.41
2022-09-18T13:13:06.603Z,95838.53
2022-09-18T13:15:42.339Z,95848.81
2022-09-18T13:18:23.146Z,95838.00
2022-09-18T13:20:52.845Z,95842.66
2022-09-18T13:23:23.211Z,95840.84
2022-09-18T13:25:51.940Z,95835.78
2022-09-18T13:28:21.608Z,95837.78
2022-09-18T13:31:11.148Z,95842.84
2022-09-18T13:33:38.293Z,95839.34
2022-09-18T13:36:05.471Z,95838.31
2022-09-18T13:38:34.620Z,95847.06
2022-09-18T13:41:05.223Z,95851.75
2022-09-18T13:43:39.407Z,95855.16
2022-09-18T13:46:08.584Z,95862.72
2022-09-18T13:48:46.892Z,95864.78
2022-09-18T13:51:31.443Z,95864.97
2022-09-18T13:54:13.993Z,95874.56
2022-09-18T13:57:10.861Z,95875.84
2022-09-18T13:59:55.750Z,95866.09
2022-09-18T14:02:28.487Z,95865.97
2022-09-18T14:05:26.867Z,95864.66
2022-09-18T14:08:01.287Z,95867.81
2022-09-18T14:11:17.595Z,95874.22
2022-09-18T14:13:57.211Z,95864.69
2022-09-18T14:16:27.352Z,95868.94
2022-09-18T14:18:58.851Z,95868.97
2022-09-18T14:21:44.352Z,95872.91
2022-09-18T14:24:38.212Z,95865.13
2022-09-18T14:27:37.409Z,95868.66
2022-09-18T14:30:15.630Z,95865.69
2022-09-18T14:32:54.782Z,95873.19
2022-09-18T14:35:30.850Z,95878.84
2022-09-18T14:37:57.842Z,95870.91
2022-09-18T14:40:27.613Z,95876.06
2022-09-18T14:42:54.905Z,95881.78
2022-09-18T14:45:25.096Z,95870.59
2022-09-18T14:47:52.243Z,95874.56
2022-09-18T14:50:39.464Z,95865.19
2022-09-18T14:53:23.796Z,95870.75
2022-09-18T14:56:06.606Z,95867.03
2022-09-18T14:58:39.537Z,95865.81
2022-09-18T15:01:14.588Z,95867.91
2022-09-18T15:03:50.598Z,95873.03
2022-09-18T15:06:33.377Z,95866.75
2022-09-18T15:09:02.725Z,95876.47
2022-09-18T15:11:41.970Z,95873.03
2022-09-18T15:14:34.009Z,95868.31
2022-09-18T15:17:05.743Z,95869.25
2022-09-18T15:19:33.644Z,95866.53
2022-09-18T15:22:00.957Z,95867.13
2022-09-18T15:24:28.510Z,95882.22
2022-09-18T15:27:02.213Z,95872.31
2022-09-18T15:29:45.007Z,95884.44
2022-09-18T15:32:25.021Z,95875.34
2022-09-18T15:34:53.362Z,95875.28
2022-09-18T15:37:21.616Z,95870.47
2022-09-18T15:39:59.366Z,95875.41
2022-09-18T15:42:42.217Z,95878.00
2022-09-18T15:45:18.450Z,95878.28
2022-09-18T15:47:46.140Z,95885.69
2022-09-18T15:50:13.101Z,95875.25
2022-09-18T15:52:52.292Z,95869.94
2022-09-18T15:55:49.357Z,95870.91
2022-09-18T15:58:33.442Z,95866.63
2022-09-18T16:01:03.081Z,95879.06
2022-09-18T16:03:31.829Z,95874.16
2022-09-18T16:06:03.873Z,95869.72
2022-09-18T16:08:34.320Z,95873.78
2022-09-18T16:11:01.921Z,95876.16
2022-09-18T16:13:37.420Z,95875.31
2022-09-18T16:16:13.136Z,95866.59
2022-09-18T16:19:10.381Z,95862.66
2022-09-18T16:21:43.338Z,95869.84
2022-09-18T16:24:28.858Z,95870.13
2022-09-18T16:27:04.896Z,95869.13
2022-09-18T16:29:33.579Z,95878.38
2022-09-18T16:32:00.531Z,95878.44
2022-09-18T16:34:28.669Z,95882.22
2022-09-18T16:36:56.417Z,95881.22
2022-09-18T16:39:26.490Z,95883.84
2022-09-18T16:41:53.978Z,95886.03
2022-09-18T16:44:21.398Z,95886.28
2022-09-18T16:47:00.587Z,95889.00
2022-09-18T16:49:32.877Z,95885.31
2022-09-18T16:51:59.941Z,95883.53
2022-09-18T16:54:26.850Z,95881.50
2022-09-18T16:56:58.608Z,95874.94
2022-09-18T16:59:29.173Z,95890.31
2022-09-18T17:02:05.646Z,95898.56
2022-09-18T17:04:34.039Z,95905.22
2022-09-18T17:07:01.533Z,95899.75
2022-09-18T17:09:28.547Z,95900.03
2022-09-18T17:11:56.359Z,95900.88
2022-09-18T17:14:23.650Z,95898.53
2022-09-18T17:16:51.072Z,95908.31
2022-09-18T17:19:18.617Z,95907.00
2022-09-18T17:21:45.822Z,95905.19
2022-09-18T17:24:13.266Z,95906.53
2022-09-18T17:26:41.751Z,95902.34
2022-09-18T17:29:11.850Z,95902.88
2022-09-18T17:31:38.964Z,95912.13
2022-09-18T17:34:06.190Z,95916.88
2022-09-18T17:36:36.976Z,95918.19
2022-09-18T17:39:04.730Z,95930.56
2022-09-18T17:41:32.609Z,95916.63
2022-09-18T17:44:00.260Z,95924.22
2022-09-18T17:46:27.264Z,95925.81
2022-09-18T17:48:59.056Z,95924.78
2022-09-18T17:51:28.894Z,95931.84
2022-09-18T17:54:04.497Z,95931.59
2022-09-18T17:56:33.358Z,95927.63
2022-09-18T17:59:05.659Z,95925.78
2022-09-18T18:01:36.660Z,95937.34
2022-09-18T18:04:05.320Z,95935.22
2022-09-18T18:06:33.004Z,95937.06
2022-09-18T18:09:00.040Z,95948.09
2022-09-18T18:11:27.000Z,95944.41
2022-09-18T18:13:54.680Z,95952.03
2022-09-18T18:16:27.782Z,95946.78
2022-09-18T18:18:58.179Z,95956.50
2022-09-18T18:21:26.722Z,95945.69
2022-09-18T18:24:02.479Z,95956.22
2022-09-18T18:26:29.790Z,95959.38
2022-09-18T18:28:58.581Z,95947.28
2022-09-18T18:31:28.155Z,95948.31
2022-09-18T18:33:57.249Z,95939.91
2022-09-18T18:36:26.667Z,95940.94
2022-09-18T18:38:55.495Z,95940.16
2022-09-18T18:41:24.861Z,95934.09
2022-09-18T18:43:55.726Z,95934.34
2022-09-18T18:46:29.556Z,95922.81
2022-09-18T18:49:03.035Z,95916.75
2022-09-18T18:51:36.820Z,95920.44
2022-09-18T18:54:06.282Z,95918.06
2022-09-18T18:56:38.349Z,95920.16
2022-09-18T18:59:09.209Z,95909.66
2022-09-18T19:01:38.214Z,95911.75
2022-09-18T19:04:12.308Z,95909.66
2022-09-18T19:06:42.638Z,95908.06
2022-09-18T19:09:22.108Z,95909.91
2022-09-18T19:11:52.250Z,95911.69
2022-09-18T19:14:25.410Z,95902.53
2022-09-18T19:16:54.731Z,95900.44
2022-09-18T19:19:23.868Z,95896.47
2022-09-18T19:21:51.280Z,95896.72
2022-09-18T19:24:19.536Z,95899.63
2022-09-18T19:26:48.544Z,95893.84
2022-09-18T19:29:16.638Z,95902.00
2022-09-18T19:31:47.766Z,95900.16
2022-09-18T19:34:17.078Z,95897.00
2022-09-18T19:36:49.599Z,95884.41
2022-09-18T19:39:17.899Z,95883.38
2022-09-18T19:41:46.357Z,95888.88
2022-09-18T19:44:20.347Z,95880.97
2022-09-18T19:46:48.293Z,95880.47
2022-09-18T19:49:19.918Z,95879.41
2022-09-18T19:51:47.749Z,95868.63
2022-09-18T19:54:14.941Z,95867.81
2022-09-18T19:56:47.530Z,95881.22
2022-09-18T19:59:17.361Z,95890.44
2022-09-18T20:01:45.699Z,95889.88
2022-09-18T20:04:12.975Z,95887.31
2022-09-18T20:06:40.758Z,95879.13
2022-09-18T20:09:08.798Z,95889.38
2022-09-18T20:11:35.778Z,95884.13
2022-09-18T20:14:03.590Z,95875.47
2022-09-18T20:16:30.903Z,95860.75
2022-09-18T20:18:58.006Z,95864.13
2022-09-18T20:21:25.219Z,95868.31
2022-09-18T20:23:57.400Z,95870.41
2022-09-18T20:26:25.438Z,95877.75
2022-09-18T20:28:52.799Z,95885.66
2022-09-18T20:31:21.083Z,95880.44
2022-09-18T20:33:47.970Z,95874.13
2022-09-18T20:36:15.873Z,95878.84
2022-09-18T20:38:43.139Z,95874.06
2022-09-18T20:41:14.427Z,95868.56
2022-09-18T20:43:42.720Z,95868.81
2022-09-18T20:46:13.441Z,95867.25
2022-09-18T20:48:41.560Z,95871.44
2022-09-18T20:51:13.210Z,95874.88
2022-09-18T20:53:42.260Z,95878.03
2022-09-18T20:56:12.952Z,95874.31
2022-09-18T20:58:42.429Z,95870.44
2022-09-18T21:01:11.531Z,95848.91
2022-09-18T21:03:40.838Z,95847.84
2022-09-18T21:06:23.618Z,95838.41
2022-09-18T21:08:53.741Z,95833.72
2022-09-18T21:11:23.740Z,95834.50
2022-09-18T21:13:59.353Z,95845.28
2022-09-18T21:16:28.425Z,95849.47
2022-09-18T21:18:57.991Z,95837.91
2022-09-18T21:21:27.201Z,95843.19
2022-09-18T21:24:02.277Z,95822.66
2022-09-18T21:26:43.411Z,95820.84
2022-09-18T21:29:14.891Z,95824.25
2022-09-18T21:31:42.982Z,95817.41
2022-09-18T21:34:12.414Z,95811.13
2022-09-18T21:36:41.872Z,95801.41
2022-09-18T21:39:11.262Z,95792.75
2022-09-18T21:41:39.723Z,95795.09
2022-09-18T21:44:09.184Z,95798.00
2022-09-18T21:46:38.867Z,95792.72
2022-09-18T21:49:07.804Z,95796.16
2022-09-18T21:51:36.383Z,95799.56
2022-09-18T21:54:05.784Z,95779.88
2022-09-18T21:56:34.529Z,95783.78
2022-09-18T21:59:01.724Z,95774.88
2022-09-18T22:01:33.574Z,95767.78
2022-09-18T22:04:02.463Z,95769.03
2022-09-18T22:06:42.044Z,95765.38
2022-09-18T22:09:11.357Z,95768.00
2022-09-18T22:11:39.116Z,95771.66
2022-09-18T22:14:12.354Z,95778.00
2022-09-18T22:16:40.174Z,95780.63
2022-09-18T22:19:08.537Z,95785.38
2022-09-18T22:21:38.084Z,95786.44
2022-09-18T22:24:09.309Z,95790.38
2022-09-18T22:26:51.405Z,95788.25
2022-09-18T22:29:22.500Z,95784.84
2022-09-18T22:31:50.561Z,95785.91
2022-09-18T22:34:20.775Z,95787.47
2022-09-18T22:36:48.584Z,95785.13
2022-09-18T22:39:17.664Z,95791.69
2022-09-18T22:41:45.325Z,95798.00
2022-09-18T22:44:12.784Z,95786.69
2022-09-18T22:46:41.946Z,95788.00
2022-09-18T22:49:09.368Z,95782.22
2022-09-18T22:51:36.365Z,95767.78
2022-09-18T22:54:07.827Z,95778.28
2022-09-18T22:56:49.851Z,95771.72
2022-09-18T22:59:18.634Z,95765.91
2022-09-18T23:02:08.205Z,95765.66
2022-09-18T23:04:36.365Z,95758.28
2022-09-18T23:07:04.049Z,95755.16
2022-09-18T23:09:31.300Z,95756.47
2022-09-18T23:11:58.893Z,95764.59
2022-09-18T23:14:29.671Z,95755.13
2022-09-18T23:16:58.090Z,95766.47
2022-09-18T23:19:33.970Z,95770.13
2022-09-18T23:22:01.430Z,95768.03
2022-09-18T23:24:28.730Z,95779.06
2022-09-18T23:26:58.225Z,95778.78
2022-09-18T23:29:26.780Z,95780.63
2022-09-18T23:31:57.627Z,95780.63
2022-09-18T23:34:28.975Z,95791.13
2022-09-18T23:36:56.389Z,95781.69
2022-09-18T23:39:24.822Z,95768.81
2022-09-18T23:41:52.840Z,95768.28
2022-09-18T23:44:21.252Z,95759.63
2022-09-18T23:46:49.055Z,95763.56
2022-09-18T23:49:17.131Z,95751.72
2022-09-18T23:51:48.429Z,95754.91
2022-09-18T23:54:24.137Z,95750.16
2022-09-18T23:56:52.159Z,95744.91
2022-09-18T23:59:22.823Z,95737.31
